Terminal Aerodrome Forecast
Issued by NWS Upton, NY

Home | Current Version | Previous Version | Text Only | Print | Product List | Glossary On
Versions: 1 2 3 4 5 6 7 8 9 10 11 12 13 14 15 16 17 18 19 20 21 22 23 24 25 26 27
219
FTUS41 KOKX 251948 AAA
TAFJFK
TAF AMD
KJFK 251948Z 2520/2624 05016G23KT 3SM -RA BR OVC006
      TEMPO 2521/2523 1SM RA BR OVC005
     FM260300 05012G20KT 1SM -RA BR OVC005
     FM260700 05009KT 3/4SM -RA BR OVC004
     FM261500 05008KT 3SM BR VCSH OVC007
     FM261900 03008KT 6SM BR OVC008=

USA.gov is the U.S. government's official web portal to all federal, state and local government web resources and services.